Time;durP1;ratioP1;P1;durP2;ratioP2;P2;SDS_P1;SDS_P2;PMS_P1;PMS_P2;Temp;Humidity;BMP_temperature;BMP_pressure;BME280_temperature;BME280_humidity;BME280_pressure;Samples;Min_cycle;Max_cycle;Signal;HPM_P1;HPM_P2
2023/01/17 00:01:59;;;;;;;5.55;4.22;;;;;;;;;;5067133;28;20111;-40
2023/01/17 00:09:57;;;;;;;6.35;3.85;;;;;;;;;;5064412;28;20406;-41
2023/01/17 00:12:28;;;;;;;4.78;3.67;;;;;;;;;;5067954;28;20063;-41
2023/01/17 00:14:55;;;;;;;10.20;3.80;;;;;;;;;;5064309;28;20490;-40
2023/01/17 00:17:22;;;;;;;4.45;3.20;;;;;;;;;;5067581;28;20038;-40
2023/01/17 01:34:52;;;;;;;4.80;2.78;;;;;;;;;;5065699;28;22470;-40
2023/01/17 01:37:17;;;;;;;8.40;2.70;;;;;;;;;;5067353;28;20021;-40
2023/01/17 01:39:42;;;;;;;6.97;2.33;;;;;;;;;;5066908;28;20033;-40
2023/01/17 01:42:16;;;;;;;4.40;2.63;;;;;;;;;;5066696;28;20040;-40
2023/01/17 01:44:48;;;;;;;7.05;3.30;;;;;;;;;;5066784;28;20121;-39
2023/01/17 01:47:33;;;;;;;3.83;2.60;;;;;;;;;;5061604;28;20036;-39
2023/01/17 01:50:01;;;;;;;6.03;2.90;;;;;;;;;;5066490;28;20496;-40
2023/01/17 01:52:30;;;;;;;4.75;2.60;;;;;;;;;;5060973;28;20025;-40
2023/01/17 01:55:07;;;;;;;5.15;2.58;;;;;;;;;;5066779;28;20104;-40
2023/01/17 01:57:39;;;;;;;4.85;2.58;;;;;;;;;;5066845;28;20143;-41
2023/01/17 02:00:15;;;;;;;5.75;2.72;;;;;;;;;;5065786;28;20033;-41
2023/01/17 02:02:42;;;;;;;5.32;3.00;;;;;;;;;;5060953;28;20534;-40
2023/01/17 02:05:10;;;;;;;3.03;2.60;;;;;;;;;;5064002;28;20036;-43
2023/01/17 02:07:59;;;;;;;4.10;2.10;;;;;;;;;;5063901;28;20079;-40
2023/01/17 02:10:25;;;;;;;4.57;2.50;;;;;;;;;;5061838;28;20400;-40
2023/01/17 02:12:53;;;;;;;3.35;2.20;;;;;;;;;;5067372;28;20032;-42
2023/01/17 02:15:23;;;;;;;4.22;2.47;;;;;;;;;;5065792;28;20396;-41
2023/01/17 02:18:26;;;;;;;4.65;2.50;;;;;;;;;;5060097;28;20040;-42
2023/01/17 02:21:08;;;;;;;;;;;;;;;;;;5067039;28;20035;-40
2023/01/17 02:23:49;;;;;;;3.60;2.38;;;;;;;;;;5064306;28;19924;-40
2023/01/17 02:26:39;;;;;;;3.03;1.90;;;;;;;;;;5064990;28;20032;-40
2023/01/17 02:29:29;;;;;;;3.70;2.08;;;;;;;;;;5063320;28;20068;-40
2023/01/17 02:32:03;;;;;;;3.38;2.13;;;;;;;;;;5064423;28;20086;-41
2023/01/17 02:34:39;;;;;;;3.42;1.65;;;;;;;;;;5064407;28;20032;-40
2023/01/17 02:37:24;;;;;;;2.88;1.85;;;;;;;;;;5064983;28;20105;-40
2023/01/17 02:40:03;;;;;;;4.60;2.30;;;;;;;;;;5067566;28;20066;-39
2023/01/17 02:42:36;;;;;;;3.67;1.60;;;;;;;;;;5062531;28;20532;-40
2023/01/17 02:45:03;;;;;;;4.28;1.70;;;;;;;;;;5063622;28;20029;-41
2023/01/17 02:47:30;;;;;;;3.45;1.83;;;;;;;;;;5059753;28;20097;-40
2023/01/17 02:50:07;;;;;;;5.57;2.40;;;;;;;;;;5065227;28;20035;-40
2023/01/17 02:52:52;;;;;;;2.95;1.92;;;;;;;;;;5065255;28;20059;-41
2023/01/17 02:55:35;;;;;;;4.75;1.95;;;;;;;;;;5063579;28;20020;-41
2023/01/17 02:58:24;;;;;;;4.57;1.67;;;;;;;;;;5064339;28;20051;-40
2023/01/17 03:01:24;;;;;;;4.78;1.70;;;;;;;;;;5062318;28;20407;-40
2023/01/17 03:04:14;;;;;;;3.22;1.80;;;;;;;;;;5023762;28;20512;-40
2023/01/17 03:06:57;;;;;;;2.60;2.00;;;;;;;;;;5017654;28;20421;-45
2023/01/17 03:09:24;;;;;;;7.65;1.73;;;;;;;;;;5017554;28;20042;-39
2023/01/17 03:11:50;;;;;;;1.67;1.35;;;;;;;;;;5019196;28;20053;-40
2023/01/17 03:14:16;;;;;;;3.28;1.70;;;;;;;;;;5015203;28;20490;-40
2023/01/17 03:16:41;;;;;;;3.33;1.48;;;;;;;;;;5022439;28;20041;-40
2023/01/17 03:19:08;;;;;;;2.65;1.42;;;;;;;;;;5014330;28;20049;-40
2023/01/17 03:21:34;;;;;;;4.07;1.38;;;;;;;;;;5020146;28;20485;-40
2023/01/17 03:24:00;;;;;;;2.47;1.65;;;;;;;;;;5017515;28;20050;-41
2023/01/17 03:26:25;;;;;;;2.88;1.30;;;;;;;;;;5021845;28;20036;-40
2023/01/17 03:28:50;;;;;;;4.45;1.50;;;;;;;;;;5017605;28;20172;-41
2023/01/17 03:31:18;;;;;;;3.13;1.88;;;;;;;;;;5022960;28;20447;-41
2023/01/17 03:33:44;;;;;;;2.10;1.83;;;;;;;;;;5020184;28;20076;-41
2023/01/17 03:36:10;;;;;;;5.38;1.67;;;;;;;;;;5020554;28;20159;-40
2023/01/17 03:38:36;;;;;;;8.82;1.92;;;;;;;;;;5052916;28;20040;-41
2023/01/17 03:41:01;;;;;;;1.95;1.58;;;;;;;;;;5065327;28;20032;-40
2023/01/17 03:43:27;;;;;;;2.45;1.40;;;;;;;;;;5062723;28;20040;-40
2023/01/17 03:46:04;;;;;;;3.75;1.55;;;;;;;;;;5067030;28;20058;-41
2023/01/17 03:48:30;;;;;;;1.08;1.02;;;;;;;;;;5063834;28;20622;-40
2023/01/17 03:50:55;;;;;;;1.95;1.27;;;;;;;;;;5064841;28;20112;-41
2023/01/17 03:53:21;;;;;;;3.65;1.48;;;;;;;;;;5061010;28;21377;-41
2023/01/17 03:55:46;;;;;;;2.05;1.40;;;;;;;;;;5066687;28;20044;-40
2023/01/17 03:58:12;;;;;;;2.17;1.50;;;;;;;;;;5061995;28;20101;-40
2023/01/17 04:00:37;;;;;;;6.47;1.83;;;;;;;;;;5063778;28;20028;-40
2023/01/17 04:03:03;;;;;;;3.05;1.20;;;;;;;;;;5063850;28;20051;-40
2023/01/17 04:05:28;;;;;;;2.38;1.23;;;;;;;;;;5064819;28;20104;-39
2023/01/17 04:07:54;;;;;;;1.98;1.40;;;;;;;;;;5064951;28;20050;-41
2023/01/17 04:10:19;;;;;;;1.33;1.23;;;;;;;;;;5061953;28;20048;-40
2023/01/17 04:12:45;;;;;;;2.25;1.30;;;;;;;;;;5064806;28;20040;-41
2023/01/17 04:15:10;;;;;;;1.10;1.10;;;;;;;;;;5061005;28;20041;-40
2023/01/17 04:17:35;;;;;;;2.45;1.27;;;;;;;;;;5065331;28;20753;-41
2023/01/17 04:20:01;;;;;;;1.30;1.20;;;;;;;;;;5063766;28;20035;-40
2023/01/17 04:22:26;;;;;;;2.83;1.20;;;;;;;;;;5063534;28;20391;-40
2023/01/17 04:24:52;;;;;;;3.70;1.30;;;;;;;;;;5065905;28;20025;-40
2023/01/17 04:27:17;;;;;;;2.05;1.50;;;;;;;;;;5065290;28;20031;-41
2023/01/17 04:29:43;;;;;;;1.42;1.20;;;;;;;;;;5062476;28;21188;-42
2023/01/17 04:32:08;;;;;;;5.35;1.27;;;;;;;;;;5064167;28;20040;-41
2023/01/17 04:34:34;;;;;;;3.95;1.17;;;;;;;;;;5062748;28;20400;-40
2023/01/17 04:36:59;;;;;;;1.25;1.15;;;;;;;;;;5064678;28;20025;-40
2023/01/17 04:39:24;;;;;;;1.50;1.15;;;;;;;;;;5062579;28;20040;-41
2023/01/17 04:41:50;;;;;;;2.85;1.33;;;;;;;;;;5068118;28;20450;-40
2023/01/17 04:44:15;;;;;;;2.92;1.30;;;;;;;;;;5063407;28;20032;-39
2023/01/17 04:46:41;;;;;;;1.90;1.20;;;;;;;;;;5066297;28;20116;-40
2023/01/17 04:49:06;;;;;;;3.33;1.30;;;;;;;;;;5067741;28;20484;-40
2023/01/17 04:51:31;;;;;;;1.40;1.10;;;;;;;;;;5068294;28;20025;-40
2023/01/17 04:53:57;;;;;;;1.80;1.30;;;;;;;;;;5065834;28;20036;-40
2023/01/17 04:56:22;;;;;;;3.35;1.55;;;;;;;;;;5066389;28;20119;-40
2023/01/17 04:58:48;;;;;;;2.55;1.55;;;;;;;;;;5067093;28;20044;-40
2023/01/17 05:01:13;;;;;;;1.38;1.08;;;;;;;;;;5061641;28;20028;-40
2023/01/17 05:03:38;;;;;;;2.10;1.13;;;;;;;;;;5065043;28;20084;-41
2023/01/17 05:06:04;;;;;;;1.38;1.05;;;;;;;;;;5067980;28;20020;-39
2023/01/17 05:08:29;;;;;;;2.13;1.35;;;;;;;;;;5063687;28;20504;-40
2023/01/17 05:10:55;;;;;;;1.58;1.48;;;;;;;;;;5063494;28;20641;-40
2023/01/17 05:13:21;;;;;;;2.70;1.52;;;;;;;;;;5062911;28;20139;-40
2023/01/17 05:15:46;;;;;;;2.15;1.48;;;;;;;;;;5050580;28;20411;-40
2023/01/17 05:18:16;;;;;;;3.05;1.23;;;;;;;;;;5070138;28;20045;-40
2023/01/17 05:20:42;;;;;;;3.00;1.50;;;;;;;;;;5066609;28;20024;-39
2023/01/17 05:23:08;;;;;;;1.15;1.05;;;;;;;;;;5066141;28;20044;-40
2023/01/17 05:25:34;;;;;;;3.25;1.45;;;;;;;;;;5067441;28;20492;-40
2023/01/17 05:28:00;;;;;;;4.70;1.60;;;;;;;;;;5062800;28;20040;-40
2023/01/17 05:30:27;;;;;;;4.25;1.42;;;;;;;;;;5065743;28;20127;-40
2023/01/17 05:32:54;;;;;;;5.00;1.77;;;;;;;;;;5064947;28;20485;-42
2023/01/17 05:35:22;;;;;;;4.32;1.85;;;;;;;;;;5068991;28;20112;-40
2023/01/17 05:37:49;;;;;;;2.03;1.10;;;;;;;;;;5067453;28;20044;-41
2023/01/17 05:40:26;;;;;;;1.88;1.15;;;;;;;;;;5065330;28;20028;-39
2023/01/17 05:42:53;;;;;;;1.92;1.40;;;;;;;;;;5066289;28;20069;-41
2023/01/17 05:45:20;;;;;;;2.88;1.30;;;;;;;;;;5066457;28;20028;-40
2023/01/17 05:47:47;;;;;;;1.40;1.30;;;;;;;;;;5065746;28;20042;-40
2023/01/17 05:50:17;;;;;;;1.40;1.30;;;;;;;;;;5063380;28;20020;-41
2023/01/17 05:52:54;;;;;;;7.30;1.85;;;;;;;;;;5062408;28;20044;-40
2023/01/17 05:55:21;;;;;;;3.28;1.33;;;;;;;;;;5063113;28;20031;-40
2023/01/17 05:57:47;;;;;;;2.13;1.30;;;;;;;;;;5066182;28;20060;-41
2023/01/17 06:00:14;;;;;;;1.58;1.25;;;;;;;;;;5066070;28;20059;-40
2023/01/17 06:02:39;;;;;;;5.18;1.70;;;;;;;;;;5062939;28;20567;-40
2023/01/17 06:05:05;;;;;;;4.55;2.25;;;;;;;;;;5061727;28;20115;-41
2023/01/17 06:07:31;;;;;;;3.78;2.10;;;;;;;;;;5062117;28;20431;-40
2023/01/17 06:09:56;;;;;;;7.82;1.73;;;;;;;;;;5062776;28;20056;-40
2023/01/17 06:12:22;;;;;;;2.33;1.70;;;;;;;;;;5062277;28;20104;-40
2023/01/17 06:14:47;;;;;;;2.30;1.60;;;;;;;;;;5060729;28;20027;-40
2023/01/17 06:17:12;;;;;;;2.05;1.50;;;;;;;;;;5059022;28;20033;-41
2023/01/17 06:19:38;;;;;;;1.48;1.38;;;;;;;;;;5062758;28;20029;-40
2023/01/17 06:22:03;;;;;;;2.28;1.60;;;;;;;;;;5062979;28;20035;-40
2023/01/17 06:24:29;;;;;;;2.13;1.38;;;;;;;;;;5063321;28;20087;-40
2023/01/17 06:26:55;;;;;;;2.80;1.60;;;;;;;;;;5063591;28;20132;-41
2023/01/17 06:29:20;;;;;;;3.63;1.95;;;;;;;;;;5062799;28;20492;-39
2023/01/17 06:31:46;;;;;;;1.88;1.40;;;;;;;;;;5066592;28;20094;-39
2023/01/17 06:34:11;;;;;;;2.17;1.98;;;;;;;;;;5057620;28;20040;-39
2023/01/17 06:36:36;;;;;;;2.70;2.13;;;;;;;;;;5061966;28;20031;-40
2023/01/17 06:39:02;;;;;;;2.70;2.40;;;;;;;;;;5062360;28;20492;-39
2023/01/17 06:41:27;;;;;;;3.97;2.50;;;;;;;;;;5061696;28;20021;-40
2023/01/17 06:43:53;;;;;;;4.72;2.20;;;;;;;;;;5064043;28;20044;-39
2023/01/17 06:46:19;;;;;;;4.07;1.90;;;;;;;;;;5065791;28;20028;-40
2023/01/17 06:48:47;;;;;;;6.80;3.55;;;;;;;;;;5062867;28;20033;-39
2023/01/17 06:51:12;;;;;;;5.40;2.60;;;;;;;;;;5065368;28;20073;-39
2023/01/17 06:53:37;;;;;;;3.30;2.53;;;;;;;;;;5065459;28;20394;-39
2023/01/17 06:56:03;;;;;;;1.83;1.73;;;;;;;;;;5062589;28;20020;-40
2023/01/17 06:58:28;;;;;;;2.97;1.80;;;;;;;;;;5062261;28;20086;-40
2023/01/17 07:00:54;;;;;;;2.45;2.25;;;;;;;;;;5063888;28;20033;-38
2023/01/17 07:03:24;;;;;;;9.10;5.13;;;;;;;;;;5066513;28;20538;-39
2023/01/17 07:05:51;;;;;;;2.67;2.13;;;;;;;;;;5063881;28;20087;-40
2023/01/17 07:08:18;;;;;;;5.20;2.05;;;;;;;;;;5065198;28;20036;-40
2023/01/17 07:10:45;;;;;;;2.47;1.80;;;;;;;;;;5064994;28;20071;-41
2023/01/17 07:13:11;;;;;;;2.60;2.40;;;;;;;;;;5059760;28;20040;-41
2023/01/17 07:15:36;;;;;;;3.08;2.30;;;;;;;;;;5064680;28;20032;-40
2023/01/17 07:18:02;;;;;;;4.15;1.92;;;;;;;;;;5064380;28;20036;-39
2023/01/17 07:20:28;;;;;;;2.72;2.17;;;;;;;;;;5063742;28;20028;-40
2023/01/17 07:22:54;;;;;;;2.72;2.08;;;;;;;;;;5062638;28;20119;-41
2023/01/17 07:25:19;;;;;;;3.60;2.10;;;;;;;;;;5069403;28;20024;-40
2023/01/17 07:27:45;;;;;;;2.90;2.15;;;;;;;;;;5063758;28;20497;-40
2023/01/17 07:30:11;;;;;;;2.08;1.92;;;;;;;;;;5064880;28;20038;-40
2023/01/17 07:32:36;;;;;;;4.80;2.47;;;;;;;;;;5061984;28;20596;-41
2023/01/17 07:35:02;;;;;;;5.07;2.25;;;;;;;;;;5063847;28;20035;-43
2023/01/17 07:37:27;;;;;;;3.10;1.95;;;;;;;;;;5062442;28;20028;-41
2023/01/17 07:39:53;;;;;;;3.67;1.95;;;;;;;;;;5061344;28;20162;-41
2023/01/17 07:42:18;;;;;;;4.93;2.13;;;;;;;;;;5060889;28;20066;-46
2023/01/17 07:44:44;;;;;;;3.80;1.77;;;;;;;;;;5062963;28;20025;-41
2023/01/17 07:47:10;;;;;;;6.45;1.65;;;;;;;;;;5059689;28;20123;-39
2023/01/17 07:49:35;;;;;;;4.18;1.83;;;;;;;;;;5064556;28;20473;-40
2023/01/17 07:52:01;;;;;;;1.90;1.80;;;;;;;;;;5065641;28;20024;-41
2023/01/17 07:54:26;;;;;;;2.60;1.80;;;;;;;;;;5062890;28;20068;-43
2023/01/17 07:56:52;;;;;;;2.55;2.13;;;;;;;;;;5065419;28;20039;-44
2023/01/17 07:59:17;;;;;;;2.90;1.77;;;;;;;;;;5065316;28;20037;-41
2023/01/17 08:01:43;;;;;;;3.70;2.22;;;;;;;;;;5060689;28;20381;-40
2023/01/17 08:04:09;;;;;;;5.72;2.33;;;;;;;;;;5063181;28;20127;-40
2023/01/17 08:06:36;;;;;;;4.13;2.35;;;;;;;;;;5062043;28;20501;-40
2023/01/17 08:09:02;;;;;;;7.53;2.17;;;;;;;;;;5058422;28;20043;-40
2023/01/17 08:11:27;;;;;;;2.67;1.88;;;;;;;;;;5064115;28;20028;-41
2023/01/17 08:13:56;;;;;;;5.72;2.10;;;;;;;;;;5058467;28;20048;-41
2023/01/17 08:16:23;;;;;;;1.95;1.85;;;;;;;;;;5065721;28;20499;-40
2023/01/17 08:18:49;;;;;;;2.67;2.03;;;;;;;;;;5065182;28;20036;-41
2023/01/17 08:21:15;;;;;;;2.22;1.67;;;;;;;;;;5047845;28;20043;-41
2023/01/17 08:23:41;;;;;;;3.05;2.10;;;;;;;;;;5064197;28;20036;-40
2023/01/17 08:26:07;;;;;;;2.10;1.73;;;;;;;;;;5065842;28;20037;-39
2023/01/17 08:28:33;;;;;;;2.42;2.20;;;;;;;;;;5065347;28;20045;-41
2023/01/17 08:31:08;;;;;;;2.35;2.15;;;;;;;;;;5070567;28;20051;-41
2023/01/17 08:33:33;;;;;;;7.05;1.90;;;;;;;;;;5063547;28;20175;-41
2023/01/17 08:35:59;;;;;;;5.90;1.83;;;;;;;;;;5064450;28;20107;-40
2023/01/17 08:38:24;;;;;;;2.13;1.85;;;;;;;;;;5063199;28;20036;-40
2023/01/17 08:40:49;;;;;;;2.00;1.80;;;;;;;;;;5060784;28;20021;-40
2023/01/17 08:43:15;;;;;;;2.55;2.20;;;;;;;;;;5063641;28;20037;-40
2023/01/17 08:45:44;;;;;;;6.78;4.50;;;;;;;;;;5061404;28;20029;-40
2023/01/17 08:48:10;;;;;;;4.80;3.17;;;;;;;;;;5064074;28;20449;-40
2023/01/17 08:50:35;;;;;;;5.82;3.28;;;;;;;;;;5066269;28;20163;-40
2023/01/17 08:53:01;;;;;;;5.38;3.30;;;;;;;;;;5065955;28;20067;-41
2023/01/17 08:55:26;;;;;;;7.07;2.10;;;;;;;;;;5063265;28;20161;-39
2023/01/17 08:57:52;;;;;;;3.60;1.85;;;;;;;;;;5065619;28;20391;-40
2023/01/17 09:00:18;;;;;;;1.80;1.70;;;;;;;;;;5062411;28;20036;-40
2023/01/17 09:02:43;;;;;;;5.75;1.80;;;;;;;;;;5063917;28;20052;-40
2023/01/17 09:05:08;;;;;;;2.20;2.00;;;;;;;;;;5060853;28;20037;-40
2023/01/17 09:07:34;;;;;;;4.95;1.70;;;;;;;;;;5060074;28;20040;-40
2023/01/17 09:09:59;;;;;;;3.67;1.80;;;;;;;;;;5058280;28;20492;-41
2023/01/17 09:12:25;;;;;;;2.33;1.95;;;;;;;;;;5059900;28;20032;-41
2023/01/17 09:14:50;;;;;;;4.55;2.60;;;;;;;;;;5063976;28;20021;-40
2023/01/17 09:17:16;;;;;;;3.67;2.13;;;;;;;;;;5060010;28;20033;-41
2023/01/17 09:19:44;;;;;;;3.45;2.17;;;;;;;;;;5063773;28;20024;-41
2023/01/17 09:22:10;;;;;;;3.90;2.38;;;;;;;;;;5065653;28;20274;-40
2023/01/17 09:24:36;;;;;;;3.70;2.40;;;;;;;;;;5065526;28;20390;-41
2023/01/17 09:27:02;;;;;;;3.47;2.53;;;;;;;;;;5060220;28;20028;-41
2023/01/17 09:29:28;;;;;;;3.08;2.78;;;;;;;;;;5063053;28;20041;-42
2023/01/17 09:31:54;;;;;;;4.13;2.58;;;;;;;;;;5063710;28;20707;-42
2023/01/17 09:34:20;;;;;;;4.25;2.22;;;;;;;;;;5059484;28;20059;-41
2023/01/17 09:36:45;;;;;;;2.90;2.53;;;;;;;;;;5065816;28;20050;-39
2023/01/17 09:39:13;;;;;;;5.47;3.42;;;;;;;;;;5050610;28;20522;-42
2023/01/17 09:41:47;;;;;;;4.68;3.33;;;;;;;;;;5067143;28;20032;-40
2023/01/17 09:44:45;;;;;;;4.43;3.03;;;;;;;;;;5064455;28;21244;-40
2023/01/17 09:47:24;;;;;;;2.83;2.33;;;;;;;;;;5054635;28;20040;-41
2023/01/17 09:49:51;;;;;;;3.33;2.22;;;;;;;;;;5064132;28;20091;-40
2023/01/17 09:52:20;;;;;;;4.20;2.72;;;;;;;;;;5062833;28;20024;-41
2023/01/17 09:54:47;;;;;;;4.30;2.40;;;;;;;;;;5064053;28;20475;-41
2023/01/17 09:57:42;;;;;;;7.13;2.70;;;;;;;;;;5060853;28;20040;-41
2023/01/17 10:00:31;;;;;;;3.30;2.67;;;;;;;;;;5058215;28;20463;-42
2023/01/17 10:03:22;;;;;;;3.83;2.50;;;;;;;;;;5058493;28;20036;-40
2023/01/17 10:06:09;;;;;;;7.13;3.97;;;;;;;;;;5061014;28;20021;-40
2023/01/17 10:08:40;;;;;;;6.22;2.70;;;;;;;;;;5058019;28;20059;-41
2023/01/17 10:11:26;;;;;;;3.17;2.50;;;;;;;;;;5057557;28;20033;-40
2023/01/17 10:14:29;;;;;;;3.65;2.03;;;;;;;;;;5057295;28;20047;-41
2023/01/17 10:17:16;;;;;;;;;;;;;;;;;;5065257;28;20131;-44
2023/01/17 10:20:14;;;;;;;11.85;2.97;;;;;;;;;;5060760;28;20352;-41
2023/01/17 10:23:13;;;;;;;2.35;2.15;;;;;;;;;;5065521;28;20036;-41
2023/01/17 10:25:47;;;;;;;5.28;2.55;;;;;;;;;;5043592;28;20375;-41
2023/01/17 10:28:20;;;;;;;3.17;2.67;;;;;;;;;;5059738;28;20045;-41
2023/01/17 10:30:51;;;;;;;7.13;2.65;;;;;;;;;;5064153;28;20044;-41
2023/01/17 10:33:25;;;;;;;3.00;2.75;;;;;;;;;;5063982;28;20052;-41
2023/01/17 10:36:06;;;;;;;3.55;2.25;;;;;;;;;;5061958;28;20024;-41
2023/01/17 10:38:35;;;;;;;3.13;1.40;;;;;;;;;;5060998;28;20374;-41
2023/01/17 10:41:17;;;;;;;5.38;1.70;;;;;;;;;;5062969;28;20107;-42
2023/01/17 10:43:51;;;;;;;2.33;1.35;;;;;;;;;;5058894;28;20101;-41
2023/01/17 10:46:22;;;;;;;2.10;1.90;;;;;;;;;;5061649;28;20031;-42
2023/01/17 10:48:50;;;;;;;5.50;1.73;;;;;;;;;;5055251;28;20044;-41
2023/01/17 10:51:31;;;;;;;3.10;1.30;;;;;;;;;;5060700;28;20043;-41
2023/01/17 10:54:28;;;;;;;3.88;1.70;;;;;;;;;;5062445;28;20189;-44
2023/01/17 10:56:53;;;;;;;3.58;1.13;;;;;;;;;;5063828;28;20051;-41
2023/01/17 10:59:32;;;;;;;5.38;1.15;;;;;;;;;;5061046;28;20509;-41
2023/01/17 11:01:59;;;;;;;2.72;1.30;;;;;;;;;;5061370;28;20033;-42
2023/01/17 11:04:39;;;;;;;2.25;1.20;;;;;;;;;;5058695;28;20443;-41
2023/01/17 11:07:18;;;;;;;3.35;1.48;;;;;;;;;;5057921;28;20062;-42
2023/01/17 11:09:48;;;;;;;2.65;2.00;;;;;;;;;;5057802;28;20045;-41
2023/01/17 11:12:36;;;;;;;4.28;1.48;;;;;;;;;;5064080;28;20025;-40
2023/01/17 11:15:18;;;;;;;4.85;2.80;;;;;;;;;;5060458;28;20135;-41
2023/01/17 11:17:46;;;;;;;4.20;2.10;;;;;;;;;;5058983;28;20052;-41
2023/01/17 11:20:11;;;;;;;3.60;1.52;;;;;;;;;;5057426;28;20028;-40
2023/01/17 11:22:37;;;;;;;6.72;2.22;;;;;;;;;;5055216;28;20044;-41
2023/01/17 11:25:03;;;;;;;3.15;2.10;;;;;;;;;;5058113;28;20024;-41
2023/01/17 11:27:32;;;;;;;1.98;1.77;;;;;;;;;;5063772;28;20051;-41
2023/01/17 11:30:14;;;;;;;4.18;2.42;;;;;;;;;;5056884;28;20085;-41
2023/01/17 11:32:53;;;;;;;2.30;2.10;;;;;;;;;;5057760;28;20051;-41
2023/01/17 11:35:24;;;;;;;7.25;2.45;;;;;;;;;;5058319;28;20025;-41
2023/01/17 11:37:50;;;;;;;6.05;2.00;;;;;;;;;;5056391;28;20049;-41
2023/01/17 11:40:25;;;;;;;7.20;2.00;;;;;;;;;;5058242;28;20047;-42
2023/01/17 11:43:01;;;;;;;4.55;2.10;;;;;;;;;;5055861;28;20063;-40
2023/01/17 11:45:32;;;;;;;10.90;1.73;;;;;;;;;;5065848;28;20085;-41
2023/01/17 11:48:07;;;;;;;5.45;2.42;;;;;;;;;;5063650;28;20065;-41
2023/01/17 11:50:34;;;;;;;3.83;2.20;;;;;;;;;;5056767;28;20023;-41
2023/01/17 11:53:21;;;;;;;3.13;2.10;;;;;;;;;;5059439;28;20404;-41
2023/01/17 11:56:07;;;;;;;7.50;2.08;;;;;;;;;;5063319;28;20037;-41
2023/01/17 11:58:36;;;;;;;2.78;2.03;;;;;;;;;;5062596;28;20036;-41
2023/01/17 12:01:16;;;;;;;5.97;2.30;;;;;;;;;;5062893;28;20024;-41
2023/01/17 12:03:55;;;;;;;4.43;2.97;;;;;;;;;;5064065;28;20218;-42
2023/01/17 12:06:48;;;;;;;6.00;2.67;;;;;;;;;;5060837;28;20062;-41
2023/01/17 12:09:21;;;;;;;7.47;2.65;;;;;;;;;;5062425;28;20036;-41
2023/01/17 12:15:21;;;;;;;9.32;2.55;;;;;;;;;;5061624;28;20094;-41
2023/01/17 12:18:14;;;;;;;3.92;2.70;;;;;;;;;;5063258;28;20050;-41
2023/01/17 12:20:45;;;;;;;6.38;3.47;;;;;;;;;;5062195;28;20194;-41
2023/01/17 12:23:19;;;;;;;5.05;2.88;;;;;;;;;;5060160;28;20059;-41
2023/01/17 12:26:20;;;;;;;2.92;2.53;;;;;;;;;;5065450;28;20024;-41
2023/01/17 12:28:51;;;;;;;5.35;2.10;;;;;;;;;;5062054;28;20471;-41
2023/01/17 12:31:32;;;;;;;3.33;1.70;;;;;;;;;;5063681;28;20053;-41
2023/01/17 12:34:27;;;;;;;7.18;2.15;;;;;;;;;;5062991;28;20090;-41
2023/01/17 12:37:02;;;;;;;3.30;2.05;;;;;;;;;;5053386;28;20043;-41
2023/01/17 12:39:35;;;;;;;4.18;2.20;;;;;;;;;;5060572;28;20538;-41
2023/01/17 12:42:03;;;;;;;3.40;1.85;;;;;;;;;;5059450;28;20036;-41
2023/01/17 12:44:46;;;;;;;2.00;1.80;;;;;;;;;;5042002;28;20147;-41
2023/01/17 12:47:14;;;;;;;2.60;1.95;;;;;;;;;;5057283;28;20424;-42
2023/01/17 12:49:44;;;;;;;4.30;2.60;;;;;;;;;;5061037;28;20032;-41
2023/01/17 12:52:28;;;;;;;5.18;2.60;;;;;;;;;;5058816;28;20036;-40
2023/01/17 12:55:09;;;;;;;5.00;2.15;;;;;;;;;;5060397;28;20495;-41
2023/01/17 12:57:41;;;;;;;2.08;1.90;;;;;;;;;;5060564;28;20044;-41
2023/01/17 13:00:10;;;;;;;3.67;1.90;;;;;;;;;;5061532;28;20073;-40
2023/01/17 13:02:49;;;;;;;3.03;1.92;;;;;;;;;;5060379;28;20435;-42
2023/01/17 13:05:24;;;;;;;9.30;1.90;;;;;;;;;;5064009;28;20041;-41
2023/01/17 13:07:56;;;;;;;2.95;2.30;;;;;;;;;;5063925;28;20044;-41
2023/01/17 13:10:25;;;;;;;4.70;1.75;;;;;;;;;;5065940;28;20043;-41
2023/01/17 13:12:52;;;;;;;4.38;1.80;;;;;;;;;;5065919;28;20079;-41
2023/01/17 13:15:22;;;;;;;2.20;1.70;;;;;;;;;;5065146;28;20020;-41
2023/01/17 13:17:51;;;;;;;3.03;1.27;;;;;;;;;;5049273;28;20044;-41
2023/01/17 13:20:52;;;;;;;4.68;1.25;;;;;;;;;;5064813;28;20028;-41
2023/01/17 13:23:28;;;;;;;3.90;1.40;;;;;;;;;;5062076;28;20064;-41
2023/01/17 13:25:56;;;;;;;4.93;1.25;;;;;;;;;;5062235;28;20033;-41
2023/01/17 13:29:04;;;;;;;1.10;1.00;;;;;;;;;;5066058;28;20128;-41
2023/01/17 13:31:59;;;;;;;1.85;1.00;;;;;;;;;;5067280;28;20511;-41
2023/01/17 13:34:51;;;;;;;2.45;0.90;;;;;;;;;;5059330;28;20056;-41
2023/01/17 13:37:38;;;;;;;1.10;1.00;;;;;;;;;;5062231;28;20025;-41
2023/01/17 13:40:36;;;;;;;0.88;0.88;;;;;;;;;;5066275;28;20477;-40
2023/01/17 13:43:12;;;;;;;2.65;1.10;;;;;;;;;;5061208;28;20048;-41
2023/01/17 13:45:38;;;;;;;1.10;1.00;;;;;;;;;;5064974;28;20479;-41
2023/01/17 13:48:19;;;;;;;3.65;1.08;;;;;;;;;;5065351;28;20127;-40
2023/01/17 13:51:10;;;;;;;2.03;1.08;;;;;;;;;;5067060;28;20047;-41
2023/01/17 13:53:35;;;;;;;1.77;1.20;;;;;;;;;;5061119;28;20036;-41
2023/01/17 13:56:22;;;;;;;1.90;1.10;;;;;;;;;;5064160;28;20027;-41
2023/01/17 13:58:53;;;;;;;1.27;1.20;;;;;;;;;;5063969;28;20036;-41
2023/01/17 14:01:21;;;;;;;0.98;0.98;;;;;;;;;;5060133;28;20032;-41
2023/01/17 14:03:50;;;;;;;3.60;1.15;;;;;;;;;;5064146;28;20038;-41
2023/01/17 14:06:43;;;;;;;3.92;1.25;;;;;;;;;;5064010;28;20048;-41
2023/01/17 14:09:47;;;;;;;1.10;1.00;;;;;;;;;;5060254;28;20131;-41
2023/01/17 14:12:24;;;;;;;2.45;1.08;;;;;;;;;;4965144;28;20042;-39
2023/01/17 14:14:55;;;;;;;1.95;1.40;;;;;;;;;;4964920;28;20790;-39
2023/01/17 14:17:21;;;;;;;1.45;1.35;;;;;;;;;;4961514;28;20105;-40
2023/01/17 14:19:50;;;;;;;1.45;1.02;;;;;;;;;;4966939;28;20031;-40
2023/01/17 14:22:23;;;;;;;1.08;0.93;;;;;;;;;;4963270;28;20039;-41
2023/01/17 14:25:02;;;;;;;3.42;1.20;;;;;;;;;;4964752;28;20035;-41
2023/01/17 14:27:33;;;;;;;1.30;1.20;;;;;;;;;;4965175;28;20030;-41
2023/01/17 14:30:00;;;;;;;3.42;1.40;;;;;;;;;;4964347;28;20066;-41
2023/01/17 14:32:34;;;;;;;3.90;1.30;;;;;;;;;;4962576;28;20043;-41
2023/01/17 14:34:59;;;;;;;3.70;1.90;;;;;;;;;;4966562;28;20395;-41
2023/01/17 14:37:48;;;;;;;3.45;1.40;;;;;;;;;;4964595;28;20071;-40
2023/01/17 14:40:20;;;;;;;1.63;1.35;;;;;;;;;;4963620;28;20043;-40
2023/01/17 14:42:50;;;;;;;1.92;1.40;;;;;;;;;;4999752;28;20048;-39
2023/01/17 14:45:23;;;;;;;2.33;2.13;;;;;;;;;;5063156;28;20048;-40
2023/01/17 14:47:50;;;;;;;2.80;1.65;;;;;;;;;;5061443;28;20048;-40
2023/01/17 14:50:24;;;;;;;4.20;1.42;;;;;;;;;;5062591;28;20057;-41
2023/01/17 14:53:12;;;;;;;3.13;2.00;;;;;;;;;;5063562;28;20122;-40
2023/01/17 14:55:48;;;;;;;1.52;1.40;;;;;;;;;;5065200;28;20162;-45
2023/01/17 14:58:23;;;;;;;2.53;1.50;;;;;;;;;;5062473;28;20143;-41
2023/01/17 15:00:51;;;;;;;2.38;1.60;;;;;;;;;;5062044;28;20149;-40
2023/01/17 15:03:16;;;;;;;1.92;1.70;;;;;;;;;;5064913;28;20076;-41
2023/01/17 15:05:46;;;;;;;2.42;1.85;;;;;;;;;;5063902;28;20053;-41
2023/01/17 15:08:14;;;;;;;2.92;2.00;;;;;;;;;;5061953;28;20116;-40
2023/01/17 15:10:47;;;;;;;4.88;2.45;;;;;;;;;;5061479;28;20040;-40
2023/01/17 15:13:17;;;;;;;5.65;3.97;;;;;;;;;;5063966;28;20076;-42
2023/01/17 15:15:43;;;;;;;4.35;3.70;;;;;;;;;;5067688;28;20024;-41
2023/01/17 15:18:25;;;;;;;2.70;2.13;;;;;;;;;;5065362;28;20040;-41
2023/01/17 15:21:01;;;;;;;;;;;;;;;;;;5065092;28;20544;-39
2023/01/17 15:23:33;;;;;;;7.07;3.90;;;;;;;;;;5064000;28;20002;-41
2023/01/17 15:26:00;;;;;;;3.42;3.05;;;;;;;;;;5049241;28;20548;-40
2023/01/17 15:28:26;;;;;;;1.58;1.30;;;;;;;;;;5065115;28;20050;-40
2023/01/17 15:31:10;;;;;;;2.88;2.03;;;;;;;;;;5060761;28;20492;-40
2023/01/17 15:33:40;;;;;;;2.40;1.85;;;;;;;;;;5062084;28;20114;-40
2023/01/17 15:36:07;;;;;;;3.85;3.20;;;;;;;;;;5059608;28;20074;-39
2023/01/17 15:38:36;;;;;;;2.72;2.13;;;;;;;;;;5065739;28;20033;-41
2023/01/17 15:41:33;;;;;;;3.80;2.85;;;;;;;;;;5064057;28;20021;-40
2023/01/17 15:44:00;;;;;;;4.28;2.08;;;;;;;;;;5060974;28;20120;-40
2023/01/17 15:46:40;;;;;;;3.55;2.75;;;;;;;;;;5061626;28;20021;-40
2023/01/17 15:49:19;;;;;;;5.68;2.97;;;;;;;;;;5061054;28;20044;-41
2023/01/17 15:51:48;;;;;;;9.18;3.55;;;;;;;;;;5064524;28;20021;-41
2023/01/17 15:54:29;;;;;;;4.97;3.05;;;;;;;;;;5063681;28;20047;-41
2023/01/17 15:57:19;;;;;;;6.03;4.38;;;;;;;;;;5062222;28;20039;-41
2023/01/17 15:59:53;;;;;;;2.10;1.80;;;;;;;;;;5064201;28;20065;-40
2023/01/17 16:02:43;;;;;;;4.32;2.63;;;;;;;;;;5065868;28;20103;-41
2023/01/17 16:05:20;;;;;;;4.95;3.17;;;;;;;;;;4989647;28;20041;-41
2023/01/17 16:07:47;;;;;;;3.95;3.55;;;;;;;;;;4981583;28;20046;-40
2023/01/17 16:10:24;;;;;;;5.13;2.63;;;;;;;;;;4983113;28;20038;-41
2023/01/17 16:12:51;;;;;;;6.03;3.67;;;;;;;;;;4990774;28;20053;-39
2023/01/17 16:15:19;;;;;;;5.82;3.38;;;;;;;;;;4993448;28;20489;-40
2023/01/17 16:17:48;;;;;;;3.72;2.78;;;;;;;;;;4990960;28;20169;-40
2023/01/17 16:20:26;;;;;;;4.20;3.45;;;;;;;;;;4985649;28;20135;-43
2023/01/17 16:22:52;;;;;;;2.78;1.85;;;;;;;;;;4986346;28;20038;-40
2023/01/17 16:25:20;;;;;;;3.47;2.42;;;;;;;;;;4983560;28;20042;-41
2023/01/17 16:27:46;;;;;;;2.88;2.22;;;;;;;;;;4989570;28;20487;-40
2023/01/17 16:30:14;;;;;;;5.55;4.40;;;;;;;;;;4983289;28;20053;-41
2023/01/17 16:32:41;;;;;;;2.90;2.20;;;;;;;;;;4982154;28;20049;-41
2023/01/17 16:35:17;;;;;;;5.80;3.50;;;;;;;;;;4987796;28;20526;-40